Portada
METAR-TAF:

METAR-TAF

Aeroports :

Cusco, Perú

latitud: 13-33S, longitud: 071-59W, altitud: 3248 m

Observació

L'informe es va fer fa 4 hores i 51 minuts, a les 04:00 UTC
Vent 2 kt amb direcció variable
Temperatura 4°C
Humitat 48%
Pressió 1035 hPa
Visibilitat 10 km o més

METAR: SPZO 050400Z VRB02KT 9999 NSC 04/M06 Q1035 NOSIG RMK PP000

Hora: 03:51 (08:51 UTC)

Pronòstic

L'informe es va fer fa 9 hores i 51 minuts, a les 23:00 UTC
Pronòstic vàlid del 05 a les 00 UTC al 05 a les 24 UTC
Vent 4 kt amb direcció variable
Visibilitat 10 km o més
Temporalment
l' 05 a les 19 UTC al 05 a les 23 UTC
Vent 10 kt del Nord

TAF: SPZO 042300Z 0500/0524 VRB04KT 9999 NSC TX21/0519Z TNM01/0511Z TEMPO 0519/0523 36010KT

Observacions i pronòstics meteorològics de més de 4000 aeroports (METAR i TAF).

Les estacions disponibles són els punts grocs i vermells al mapa.

Posi el ratolí al punt desitjat per veure el nom de l'estació.

Feu clic per veure les observacions i els pronòstics meteorològics.

Per canviar el mapa: feu clic els botons verds amb una creu de color negre per apropar; al botó verd amb un guió per allunyar la imatge; o en les fletxes verdes per a mapes adjacents.


METAR-TAF: